sensor_id;sensor_type;location;lat;lon;timestamp;pressure;altitude;pressure_sealevel;temperature;humidity
71149;BME280;59072;42.144;25.200;2022-12-29T00:02:01;101280.84;;;6.12;88.34
71149;BME280;59072;42.144;25.200;2022-12-29T00:04:27;101261.84;;;5.90;88.92
71149;BME280;59072;42.144;25.200;2022-12-29T00:06:52;101260.97;;;6.08;88.39
71149;BME280;59072;42.144;25.200;2022-12-29T00:09:18;101284.47;;;6.11;88.76
71149;BME280;59072;42.144;25.200;2022-12-29T00:11:44;101284.28;;;6.04;88.86
71149;BME280;59072;42.144;25.200;2022-12-29T00:14:10;101260.53;;;5.94;89.20
71149;BME280;59072;42.144;25.200;2022-12-29T00:16:55;101286.31;;;6.18;87.78
71149;BME280;59072;42.144;25.200;2022-12-29T00:19:20;101269.25;;;6.13;87.47
71149;BME280;59072;42.144;25.200;2022-12-29T00:22:05;101266.13;;;6.17;87.53
71149;BME280;59072;42.144;25.200;2022-12-29T00:24:49;101298.13;;;6.32;87.20
71149;BME280;59072;42.144;25.200;2022-12-29T00:27:28;101287.53;;;6.32;87.44
71149;BME280;59072;42.144;25.200;2022-12-29T00:30:15;101291.69;;;6.35;86.05
71149;BME280;59072;42.144;25.200;2022-12-29T00:32:59;101285.53;;;6.26;86.44
71149;BME280;59072;42.144;25.200;2022-12-29T00:35:56;101307.09;;;6.39;86.13
71149;BME280;59072;42.144;25.200;2022-12-29T00:38:23;101282.72;;;6.28;85.35
71149;BME280;59072;42.144;25.200;2022-12-29T00:41:07;101285.84;;;6.31;86.61
71149;BME280;59072;42.144;25.200;2022-12-29T00:43:51;101313.06;;;6.41;86.27
71149;BME280;59072;42.144;25.200;2022-12-29T00:48:58;101319.44;;;6.73;84.93
71149;BME280;59072;42.144;25.200;2022-12-29T00:51:42;101298.50;;;6.54;84.59
71149;BME280;59072;42.144;25.200;2022-12-29T00:54:08;101301.13;;;6.37;85.65
71149;BME280;59072;42.144;25.200;2022-12-29T00:56:33;101299.34;;;6.46;85.55
71149;BME280;59072;42.144;25.200;2022-12-29T00:59:07;101320.09;;;6.67;85.44
71149;BME280;59072;42.144;25.200;2022-12-29T01:01:35;101317.22;;;6.44;86.31
71149;BME280;59072;42.144;25.200;2022-12-29T01:04:01;101313.56;;;6.45;87.05
71149;BME280;59072;42.144;25.200;2022-12-29T01:06:26;101318.13;;;6.86;85.33
71149;BME280;59072;42.144;25.200;2022-12-29T01:08:52;101304.19;;;6.67;85.27
71149;BME280;59072;42.144;25.200;2022-12-29T01:11:37;101297.41;;;6.81;84.29
71149;BME280;59072;42.144;25.200;2022-12-29T01:14:03;101321.47;;;6.96;84.14
71149;BME280;59072;42.144;25.200;2022-12-29T01:16:28;101317.47;;;6.75;85.10
71149;BME280;59072;42.144;25.200;2022-12-29T01:18:54;101307.19;;;6.64;85.50
71149;BME280;59072;42.144;25.200;2022-12-29T01:21:19;101314.25;;;6.55;85.45
71149;BME280;59072;42.144;25.200;2022-12-29T01:23:45;101312.41;;;6.48;85.39
71149;BME280;59072;42.144;25.200;2022-12-29T01:26:16;101300.25;;;6.20;86.30
71149;BME280;59072;42.144;25.200;2022-12-29T01:28:42;101298.81;;;6.00;86.71
71149;BME280;59072;42.144;25.200;2022-12-29T01:31:12;101320.06;;;6.08;87.08
71149;BME280;59072;42.144;25.200;2022-12-29T01:33:38;101309.94;;;6.03;86.20
71149;BME280;59072;42.144;25.200;2022-12-29T01:36:05;101315.56;;;6.09;86.83
71149;BME280;59072;42.144;25.200;2022-12-29T01:38:32;101308.31;;;6.11;85.98
71149;BME280;59072;42.144;25.200;2022-12-29T01:40:57;101301.41;;;6.26;85.41
71149;BME280;59072;42.144;25.200;2022-12-29T01:46:29;101296.25;;;6.16;85.53
71149;BME280;59072;42.144;25.200;2022-12-29T01:51:35;101294.88;;;6.04;86.26
71149;BME280;59072;42.144;25.200;2022-12-29T01:54:05;101285.44;;;6.01;85.77
71149;BME280;59072;42.144;25.200;2022-12-29T01:56:33;101288.13;;;6.10;85.73
71149;BME280;59072;42.144;25.200;2022-12-29T01:59:03;101294.78;;;6.22;85.45
71149;BME280;59072;42.144;25.200;2022-12-29T02:01:30;101281.84;;;6.19;85.74
71149;BME280;59072;42.144;25.200;2022-12-29T02:03:55;101281.38;;;6.15;85.16
71149;BME280;59072;42.144;25.200;2022-12-29T02:06:23;101273.88;;;6.11;85.52
71149;BME280;59072;42.144;25.200;2022-12-29T02:08:53;101273.41;;;6.15;85.27
71149;BME280;59072;42.144;25.200;2022-12-29T02:11:21;101259.97;;;6.09;85.41
71149;BME280;59072;42.144;25.200;2022-12-29T02:13:48;101280.81;;;6.03;85.83
71149;BME280;59072;42.144;25.200;2022-12-29T02:16:39;101286.53;;;6.33;86.09
71149;BME280;59072;42.144;25.200;2022-12-29T02:22:46;101255.69;;;6.16;84.91
71149;BME280;59072;42.144;25.200;2022-12-29T02:28:09;101271.25;;;6.19;85.47
71149;BME280;59072;42.144;25.200;2022-12-29T02:33:42;101276.88;;;6.16;86.57
71149;BME280;59072;42.144;25.200;2022-12-29T02:36:24;101259.25;;;5.98;87.15
71149;BME280;59072;42.144;25.200;2022-12-29T02:39:01;101250.38;;;5.81;88.48
71149;BME280;59072;42.144;25.200;2022-12-29T02:44:16;101257.41;;;5.91;87.77
71149;BME280;59072;42.144;25.200;2022-12-29T02:46:51;101245.59;;;5.77;88.58
71149;BME280;59072;42.144;25.200;2022-12-29T02:54:20;101241.06;;;5.95;88.62
71149;BME280;59072;42.144;25.200;2022-12-29T02:59:57;101233.31;;;5.76;88.08
71149;BME280;59072;42.144;25.200;2022-12-29T03:11:00;101233.56;;;5.91;87.53
71149;BME280;59072;42.144;25.200;2022-12-29T03:13:55;101235.81;;;5.77;89.79
71149;BME280;59072;42.144;25.200;2022-12-29T03:16:45;101233.88;;;5.53;89.83
71149;BME280;59072;42.144;25.200;2022-12-29T03:21:42;101237.19;;;5.55;90.78
71149;BME280;59072;42.144;25.200;2022-12-29T03:24:30;101231.25;;;5.61;90.12
71149;BME280;59072;42.144;25.200;2022-12-29T03:26:59;101217.22;;;5.61;89.42
71149;BME280;59072;42.144;25.200;2022-12-29T03:29:28;101235.50;;;5.80;88.90
71149;BME280;59072;42.144;25.200;2022-12-29T03:31:55;101230.63;;;5.68;88.88
71149;BME280;59072;42.144;25.200;2022-12-29T03:34:23;101212.31;;;5.40;90.04
71149;BME280;59072;42.144;25.200;2022-12-29T03:36:53;101223.91;;;5.47;91.02
71149;BME280;59072;42.144;25.200;2022-12-29T03:39:23;101222.34;;;5.62;89.60
71149;BME280;59072;42.144;25.200;2022-12-29T03:41:51;101239.94;;;5.80;89.03
71149;BME280;59072;42.144;25.200;2022-12-29T03:44:21;101237.63;;;5.77;88.56
71149;BME280;59072;42.144;25.200;2022-12-29T03:46:46;101237.69;;;5.85;87.66
71149;BME280;59072;42.144;25.200;2022-12-29T03:49:12;101233.44;;;6.00;87.86
71149;BME280;59072;42.144;25.200;2022-12-29T03:51:37;101243.75;;;6.12;87.12
71149;BME280;59072;42.144;25.200;2022-12-29T03:54:03;101221.47;;;5.88;87.71
71149;BME280;59072;42.144;25.200;2022-12-29T03:56:28;101246.84;;;5.64;89.23
71149;BME280;59072;42.144;25.200;2022-12-29T03:58:54;101242.56;;;5.72;89.27
71149;BME280;59072;42.144;25.200;2022-12-29T04:01:19;101226.00;;;5.70;88.61
71149;BME280;59072;42.144;25.200;2022-12-29T04:03:45;101226.88;;;5.70;88.74
71149;BME280;59072;42.144;25.200;2022-12-29T04:06:10;101241.09;;;5.77;88.33
71149;BME280;59072;42.144;25.200;2022-12-29T04:08:35;101218.38;;;5.58;89.27
71149;BME280;59072;42.144;25.200;2022-12-29T04:11:01;101221.00;;;5.58;88.62
71149;BME280;59072;42.144;25.200;2022-12-29T04:13:26;101235.50;;;5.46;90.60
71149;BME280;59072;42.144;25.200;2022-12-29T04:15:52;101231.00;;;5.73;89.72
71149;BME280;59072;42.144;25.200;2022-12-29T04:18:17;101219.03;;;5.60;89.28
71149;BME280;59072;42.144;25.200;2022-12-29T04:20:44;101234.81;;;5.70;89.34
71149;BME280;59072;42.144;25.200;2022-12-29T04:23:25;101234.50;;;5.47;89.90
71149;BME280;59072;42.144;25.200;2022-12-29T04:25:50;101231.16;;;5.71;89.27
71149;BME280;59072;42.144;25.200;2022-12-29T04:28:16;101231.44;;;5.60;89.93
71149;BME280;59072;42.144;25.200;2022-12-29T04:30:43;101221.44;;;5.46;90.75
71149;BME280;59072;42.144;25.200;2022-12-29T04:33:09;101243.19;;;5.66;89.82
71149;BME280;59072;42.144;25.200;2022-12-29T04:35:34;101217.31;;;5.51;89.37
71149;BME280;59072;42.144;25.200;2022-12-29T04:38:00;101220.50;;;5.55;89.45
71149;BME280;59072;42.144;25.200;2022-12-29T04:40:25;101249.84;;;5.70;89.23
71149;BME280;59072;42.144;25.200;2022-12-29T04:42:51;101241.94;;;5.78;89.28
71149;BME280;59072;42.144;25.200;2022-12-29T04:45:16;101246.56;;;5.76;89.04
71149;BME280;59072;42.144;25.200;2022-12-29T04:47:42;101263.97;;;5.78;88.63
71149;BME280;59072;42.144;25.200;2022-12-29T04:50:08;101259.06;;;5.66;89.17
71149;BME280;59072;42.144;25.200;2022-12-29T04:52:34;101260.75;;;5.67;89.10
71149;BME280;59072;42.144;25.200;2022-12-29T04:54:59;101268.53;;;5.68;88.87
71149;BME280;59072;42.144;25.200;2022-12-29T04:57:26;101266.22;;;5.73;89.27
71149;BME280;59072;42.144;25.200;2022-12-29T04:59:51;101255.84;;;5.80;88.65
71149;BME280;59072;42.144;25.200;2022-12-29T05:02:17;101274.75;;;5.85;88.51
71149;BME280;59072;42.144;25.200;2022-12-29T05:04:42;101275.72;;;5.84;88.45
71149;BME280;59072;42.144;25.200;2022-12-29T05:07:08;101267.69;;;5.68;88.42
71149;BME280;59072;42.144;25.200;2022-12-29T05:09:33;101271.81;;;5.96;87.02
71149;BME280;59072;42.144;25.200;2022-12-29T05:11:59;101277.06;;;5.88;87.45
71149;BME280;59072;42.144;25.200;2022-12-29T05:14:24;101250.97;;;5.67;87.77
71149;BME280;59072;42.144;25.200;2022-12-29T05:16:50;101256.75;;;5.62;87.72
71149;BME280;59072;42.144;25.200;2022-12-29T05:19:16;101268.72;;;5.75;88.65
71149;BME280;59072;42.144;25.200;2022-12-29T05:21:42;101273.25;;;5.82;88.20
71149;BME280;59072;42.144;25.200;2022-12-29T05:24:08;101272.69;;;5.71;88.38
71149;BME280;59072;42.144;25.200;2022-12-29T05:26:34;101268.22;;;5.71;88.10
71149;BME280;59072;42.144;25.200;2022-12-29T05:28:59;101255.03;;;5.53;89.38
71149;BME280;59072;42.144;25.200;2022-12-29T05:31:25;101255.03;;;5.53;88.76
71149;BME280;59072;42.144;25.200;2022-12-29T05:33:50;101274.03;;;5.49;89.73
71149;BME280;59072;42.144;25.200;2022-12-29T05:36:16;101278.13;;;5.69;88.85
71149;BME280;59072;42.144;25.200;2022-12-29T05:38:41;101277.81;;;5.72;89.37
71149;BME280;59072;42.144;25.200;2022-12-29T05:41:07;101245.13;;;5.55;88.31
71149;BME280;59072;42.144;25.200;2022-12-29T05:43:32;101269.38;;;5.69;88.51
71149;BME280;59072;42.144;25.200;2022-12-29T05:45:57;101277.88;;;5.80;88.53
71149;BME280;59072;42.144;25.200;2022-12-29T05:48:23;101280.63;;;5.71;89.29
71149;BME280;59072;42.144;25.200;2022-12-29T05:50:49;101290.53;;;5.69;89.47
71149;BME280;59072;42.144;25.200;2022-12-29T05:53:15;101281.59;;;5.70;88.76
71149;BME280;59072;42.144;25.200;2022-12-29T05:55:41;101248.09;;;5.52;89.23
71149;BME280;59072;42.144;25.200;2022-12-29T05:58:06;101278.91;;;5.61;89.26
71149;BME280;59072;42.144;25.200;2022-12-29T06:00:31;101277.81;;;5.46;89.55
71149;BME280;59072;42.144;25.200;2022-12-29T06:02:57;101278.69;;;5.29;90.95
71149;BME280;59072;42.144;25.200;2022-12-29T06:05:22;101277.97;;;5.44;90.46
71149;BME280;59072;42.144;25.200;2022-12-29T06:07:48;101279.41;;;5.39;90.19
71149;BME280;59072;42.144;25.200;2022-12-29T06:10:13;101261.91;;;5.38;90.08
71149;BME280;59072;42.144;25.200;2022-12-29T06:12:39;101261.47;;;5.24;90.86
71149;BME280;59072;42.144;25.200;2022-12-29T06:15:05;101274.13;;;5.39;90.48
71149;BME280;59072;42.144;25.200;2022-12-29T06:17:30;101255.78;;;5.37;90.21
71149;BME280;59072;42.144;25.200;2022-12-29T06:19:56;101278.78;;;5.45;89.96
71149;BME280;59072;42.144;25.200;2022-12-29T06:22:21;101280.81;;;5.51;89.76
71149;BME280;59072;42.144;25.200;2022-12-29T06:24:47;101262.88;;;5.63;88.92
71149;BME280;59072;42.144;25.200;2022-12-29T06:27:12;101274.31;;;5.72;88.31
71149;BME280;59072;42.144;25.200;2022-12-29T06:29:39;101255.72;;;5.55;88.81
71149;BME280;59072;42.144;25.200;2022-12-29T06:32:05;101261.13;;;5.46;88.63
71149;BME280;59072;42.144;25.200;2022-12-29T06:34:31;101268.34;;;5.35;89.50
71149;BME280;59072;42.144;25.200;2022-12-29T06:36:56;101252.91;;;5.31;89.99
71149;BME280;59072;42.144;25.200;2022-12-29T06:39:22;101275.34;;;5.44;89.58
71149;BME280;59072;42.144;25.200;2022-12-29T06:41:47;101277.22;;;5.52;89.14
71149;BME280;59072;42.144;25.200;2022-12-29T06:44:13;101279.56;;;5.63;89.15
71149;BME280;59072;42.144;25.200;2022-12-29T06:46:38;101277.16;;;5.70;88.81
71149;BME280;59072;42.144;25.200;2022-12-29T06:49:04;101263.97;;;5.78;88.58
71149;BME280;59072;42.144;25.200;2022-12-29T06:51:29;101287.50;;;5.90;88.57
71149;BME280;59072;42.144;25.200;2022-12-29T06:53:55;101283.66;;;6.10;87.67
71149;BME280;59072;42.144;25.200;2022-12-29T06:56:20;101279.38;;;6.17;87.56
71149;BME280;59072;42.144;25.200;2022-12-29T06:58:45;101290.03;;;6.34;86.59
71149;BME280;59072;42.144;25.200;2022-12-29T07:01:11;101290.25;;;6.57;85.73
71149;BME280;59072;42.144;25.200;2022-12-29T07:03:36;101283.97;;;6.66;84.74
71149;BME280;59072;42.144;25.200;2022-12-29T07:06:02;101274.63;;;6.37;85.97
71149;BME280;59072;42.144;25.200;2022-12-29T07:08:27;101283.56;;;6.28;86.90
71149;BME280;59072;42.144;25.200;2022-12-29T07:10:53;101266.50;;;6.39;86.32
71149;BME280;59072;42.144;25.200;2022-12-29T07:13:18;101278.97;;;6.55;86.48
71149;BME280;59072;42.144;25.200;2022-12-29T07:15:44;101289.75;;;6.53;86.54
71149;BME280;59072;42.144;25.200;2022-12-29T07:18:09;101266.03;;;6.43;85.82
71149;BME280;59072;42.144;25.200;2022-12-29T07:20:41;101307.66;;;6.76;85.09
71149;BME280;59072;42.144;25.200;2022-12-29T07:23:07;101302.19;;;6.69;85.10
71149;BME280;59072;42.144;25.200;2022-12-29T07:25:32;101304.81;;;6.53;86.43
71149;BME280;59072;42.144;25.200;2022-12-29T07:28:00;101317.78;;;13.46;74.83
71149;BME280;59072;42.144;25.200;2022-12-29T07:30:26;101329.47;;;15.46;54.63
71149;BME280;59072;42.144;25.200;2022-12-29T07:32:52;101322.38;;;18.46;48.95
71149;BME280;59072;42.144;25.200;2022-12-29T07:35:18;101305.34;;;12.99;55.50
71149;BME280;59072;42.144;25.200;2022-12-29T07:37:43;101301.63;;;10.77;63.91
71149;BME280;59072;42.144;25.200;2022-12-29T07:40:09;101305.63;;;9.33;70.11
71149;BME280;59072;42.144;25.200;2022-12-29T07:42:35;101295.38;;;8.83;72.74
71149;BME280;59072;42.144;25.200;2022-12-29T07:45:00;101322.56;;;8.94;73.55
71149;BME280;59072;42.144;25.200;2022-12-29T07:47:26;101316.97;;;8.57;75.33
71149;BME280;59072;42.144;25.200;2022-12-29T07:49:52;101300.59;;;8.37;75.43
71149;BME280;59072;42.144;25.200;2022-12-29T07:52:17;101298.59;;;8.39;75.92
71149;BME280;59072;42.144;25.200;2022-12-29T07:54:43;101317.56;;;8.44;75.83
71149;BME280;59072;42.144;25.200;2022-12-29T07:57:08;101314.97;;;8.20;76.54
71149;BME280;59072;42.144;25.200;2022-12-29T07:59:33;101316.19;;;8.09;76.61
71149;BME280;59072;42.144;25.200;2022-12-29T08:01:59;101322.50;;;8.08;76.78
71149;BME280;59072;42.144;25.200;2022-12-29T08:04:25;101311.69;;;8.10;77.13
71149;BME280;59072;42.144;25.200;2022-12-29T08:06:50;101318.66;;;8.11;75.82
71149;BME280;59072;42.144;25.200;2022-12-29T08:09:16;101327.41;;;8.28;74.92
71149;BME280;59072;42.144;25.200;2022-12-29T08:11:41;101331.63;;;8.14;74.52
71149;BME280;59072;42.144;25.200;2022-12-29T08:14:08;101320.69;;;8.00;75.94
71149;BME280;59072;42.144;25.200;2022-12-29T08:16:34;101325.31;;;8.07;74.49
71149;BME280;59072;42.144;25.200;2022-12-29T08:18:59;101325.16;;;8.08;75.39
71149;BME280;59072;42.144;25.200;2022-12-29T08:21:27;101325.13;;;8.16;74.62
71149;BME280;59072;42.144;25.200;2022-12-29T08:23:53;101318.38;;;8.45;74.60
71149;BME280;59072;42.144;25.200;2022-12-29T08:26:19;101335.81;;;8.39;74.00
71149;BME280;59072;42.144;25.200;2022-12-29T08:28:44;101334.28;;;8.53;74.37
71149;BME280;59072;42.144;25.200;2022-12-29T08:31:10;101324.31;;;8.78;73.62
71149;BME280;59072;42.144;25.200;2022-12-29T08:33:35;101331.63;;;9.08;73.61
71149;BME280;59072;42.144;25.200;2022-12-29T08:36:02;101334.53;;;8.98;72.83
71149;BME280;59072;42.144;25.200;2022-12-29T08:38:28;101333.56;;;8.91;72.02
71149;BME280;59072;42.144;25.200;2022-12-29T08:40:54;101321.44;;;8.88;73.13
71149;BME280;59072;42.144;25.200;2022-12-29T08:43:20;101334.63;;;8.81;72.21
71149;BME280;59072;42.144;25.200;2022-12-29T08:45:45;101328.53;;;8.96;72.21
71149;BME280;59072;42.144;25.200;2022-12-29T08:48:11;101312.75;;;8.94;73.15
71149;BME280;59072;42.144;25.200;2022-12-29T08:50:36;101316.53;;;9.00;72.32
71149;BME280;59072;42.144;25.200;2022-12-29T08:53:02;101304.94;;;9.16;71.62
71149;BME280;59072;42.144;25.200;2022-12-29T08:55:27;101300.44;;;9.16;70.85
71149;BME280;59072;42.144;25.200;2022-12-29T08:57:53;101302.25;;;9.39;70.79
71149;BME280;59072;42.144;25.200;2022-12-29T09:00:18;101286.22;;;9.77;70.14
71149;BME280;59072;42.144;25.200;2022-12-29T09:02:45;101284.94;;;9.73;70.54
71149;BME280;59072;42.144;25.200;2022-12-29T09:05:10;101285.03;;;9.79;69.70
71149;BME280;59072;42.144;25.200;2022-12-29T09:07:36;101283.81;;;9.82;68.41
71149;BME280;59072;42.144;25.200;2022-12-29T09:10:02;101276.56;;;9.76;68.31
71149;BME280;59072;42.144;25.200;2022-12-29T09:12:28;101281.81;;;9.69;68.72
71149;BME280;59072;42.144;25.200;2022-12-29T09:14:53;101278.03;;;9.63;68.76
71149;BME280;59072;42.144;25.200;2022-12-29T09:17:19;101278.50;;;9.82;68.90
71149;BME280;59072;42.144;25.200;2022-12-29T09:20:03;101282.69;;;10.21;67.16
71149;BME280;59072;42.144;25.200;2022-12-29T09:22:29;101274.28;;;9.73;68.29
71149;BME280;59072;42.144;25.200;2022-12-29T09:24:54;101266.69;;;10.21;67.98
71149;BME280;59072;42.144;25.200;2022-12-29T09:27:19;101258.91;;;10.34;66.56
71149;BME280;59072;42.144;25.200;2022-12-29T09:29:45;101253.22;;;10.59;65.37
71149;BME280;59072;42.144;25.200;2022-12-29T09:32:10;101255.00;;;10.73;65.28
71149;BME280;59072;42.144;25.200;2022-12-29T09:34:36;101258.03;;;10.49;65.97
71149;BME280;59072;42.144;25.200;2022-12-29T09:37:01;101249.28;;;10.55;65.68
71149;BME280;59072;42.144;25.200;2022-12-29T09:39:27;101223.06;;;10.86;65.66
71149;BME280;59072;42.144;25.200;2022-12-29T09:42:00;101238.22;;;10.79;66.00
71149;BME280;59072;42.144;25.200;2022-12-29T09:47:34;101234.75;;;11.07;65.02
71149;BME280;59072;42.144;25.200;2022-12-29T09:50:20;101230.00;;;11.31;65.54
71149;BME280;59072;42.144;25.200;2022-12-29T09:55:34;101228.44;;;11.43;60.87
71149;BME280;59072;42.144;25.200;2022-12-29T09:58:06;101215.72;;;11.45;62.01
71149;BME280;59072;42.144;25.200;2022-12-29T10:01:01;101212.47;;;11.21;63.65
71149;BME280;59072;42.144;25.200;2022-12-29T10:03:25;101207.59;;;11.32;61.84
71149;BME280;59072;42.144;25.200;2022-12-29T10:06:13;101208.53;;;11.52;60.75
71149;BME280;59072;42.144;25.200;2022-12-29T10:08:52;101205.59;;;11.75;59.87
71149;BME280;59072;42.144;25.200;2022-12-29T10:25:02;101188.97;;;12.95;55.76
71149;BME280;59072;42.144;25.200;2022-12-29T10:27:36;101175.78;;;13.13;56.31
71149;BME280;59072;42.144;25.200;2022-12-29T10:30:03;101165.72;;;12.89;55.99
71149;BME280;59072;42.144;25.200;2022-12-29T10:32:30;101172.09;;;13.14;56.79
71149;BME280;59072;42.144;25.200;2022-12-29T10:35:11;101178.50;;;12.73;56.89
71149;BME280;59072;42.144;25.200;2022-12-29T10:38:05;101172.09;;;12.94;56.75
71149;BME280;59072;42.144;25.200;2022-12-29T10:40:49;101162.81;;;12.97;53.32
71149;BME280;59072;42.144;25.200;2022-12-29T10:46:00;101140.13;;;13.33;54.83
71149;BME280;59072;42.144;25.200;2022-12-29T10:48:32;101148.16;;;13.26;55.18
71149;BME280;59072;42.144;25.200;2022-12-29T10:51:01;101135.75;;;13.45;54.35
71149;BME280;59072;42.144;25.200;2022-12-29T10:53:47;101131.66;;;13.36;54.10
71149;BME280;59072;42.144;25.200;2022-12-29T10:58:58;101148.16;;;13.33;55.19
71149;BME280;59072;42.144;25.200;2022-12-29T11:01:37;101137.44;;;13.84;52.58
71149;BME280;59072;42.144;25.200;2022-12-29T11:07:04;101108.66;;;14.62;50.15
71149;BME280;59072;42.144;25.200;2022-12-29T11:09:34;101125.78;;;14.68;50.16
71149;BME280;59072;42.144;25.200;2022-12-29T11:12:00;101126.75;;;14.73;50.16
71149;BME280;59072;42.144;25.200;2022-12-29T11:14:28;101131.41;;;14.59;51.14
71149;BME280;59072;42.144;25.200;2022-12-29T11:17:02;101107.91;;;14.98;49.40
71149;BME280;59072;42.144;25.200;2022-12-29T11:19:30;101118.47;;;15.18;49.33
71149;BME280;59072;42.144;25.200;2022-12-29T11:22:11;101124.13;;;15.47;48.71
71149;BME280;59072;42.144;25.200;2022-12-29T11:24:44;101126.28;;;15.38;49.20
71149;BME280;59072;42.144;25.200;2022-12-29T11:27:16;101112.66;;;15.70;48.13
71149;BME280;59072;42.144;25.200;2022-12-29T11:29:43;101125.84;;;16.20;46.90
71149;BME280;59072;42.144;25.200;2022-12-29T11:32:23;101121.41;;;15.84;46.79
71149;BME280;59072;42.144;25.200;2022-12-29T11:34:49;101112.41;;;15.90;47.24
71149;BME280;59072;42.144;25.200;2022-12-29T11:37:18;101106.50;;;16.12;47.09
71149;BME280;59072;42.144;25.200;2022-12-29T11:42:50;101114.41;;;16.48;46.17
71149;BME280;59072;42.144;25.200;2022-12-29T11:45:19;101112.41;;;16.32;46.69
71149;BME280;59072;42.144;25.200;2022-12-29T11:48:14;101099.69;;;15.97;46.24
71149;BME280;59072;42.144;25.200;2022-12-29T11:50:43;101096.00;;;16.10;45.73
71149;BME280;59072;42.144;25.200;2022-12-29T11:53:20;101092.56;;;15.73;46.14
71149;BME280;59072;42.144;25.200;2022-12-29T11:55:55;101086.59;;;16.90;44.46
71149;BME280;59072;42.144;25.200;2022-12-29T11:58:28;101082.94;;;16.73;44.67
71149;BME280;59072;42.144;25.200;2022-12-29T12:00:54;101070.28;;;16.73;44.88
71149;BME280;59072;42.144;25.200;2022-12-29T12:03:24;101084.34;;;16.52;44.90
71149;BME280;59072;42.144;25.200;2022-12-29T12:05:58;101055.53;;;16.64;45.26
71149;BME280;59072;42.144;25.200;2022-12-29T12:08:46;101082.38;;;16.94;44.51
71149;BME280;59072;42.144;25.200;2022-12-29T12:11:32;101063.53;;;16.82;44.13
71149;BME280;59072;42.144;25.200;2022-12-29T12:14:16;101078.19;;;17.39;43.84
71149;BME280;59072;42.144;25.200;2022-12-29T12:16:53;101076.13;;;17.58;42.08
71149;BME280;59072;42.144;25.200;2022-12-29T12:22:13;101068.72;;;18.11;40.95
71149;BME280;59072;42.144;25.200;2022-12-29T12:24:55;101061.63;;;18.77;39.46
71149;BME280;59072;42.144;25.200;2022-12-29T12:27:28;101068.59;;;19.12;38.91
71149;BME280;59072;42.144;25.200;2022-12-29T12:30:19;101064.91;;;18.79;39.06
71149;BME280;59072;42.144;25.200;2022-12-29T12:33:37;101063.69;;;19.09;38.82
71149;BME280;59072;42.144;25.200;2022-12-29T12:38:42;101086.38;;;19.74;37.37
71149;BME280;59072;42.144;25.200;2022-12-29T12:41:38;101084.47;;;20.34;36.58
71149;BME280;59072;42.144;25.200;2022-12-29T12:53:36;101077.91;;;21.05;34.47
71149;BME280;59072;42.144;25.200;2022-12-29T13:11:55;101071.09;;;22.68;31.53
71149;BME280;59072;42.144;25.200;2022-12-29T13:22:42;101074.31;;;21.52;32.32
71149;BME280;59072;42.144;25.200;2022-12-29T13:27:52;101083.50;;;23.00;30.31
71149;BME280;59072;42.144;25.200;2022-12-29T13:30:23;101063.00;;;22.37;31.33
71149;BME280;59072;42.144;25.200;2022-12-29T13:35:44;101079.22;;;21.76;31.93
71149;BME280;59072;42.144;25.200;2022-12-29T13:38:22;101078.63;;;21.53;32.71
71149;BME280;59072;42.144;25.200;2022-12-29T13:40:54;101075.50;;;21.09;33.78
71149;BME280;59072;42.144;25.200;2022-12-29T13:43:22;101071.69;;;21.04;33.99
71149;BME280;59072;42.144;25.200;2022-12-29T13:45:52;101071.97;;;21.18;33.39
71149;BME280;59072;42.144;25.200;2022-12-29T13:48:23;101076.47;;;21.55;32.85
71149;BME280;59072;42.144;25.200;2022-12-29T13:50:55;101077.22;;;20.77;33.82
71149;BME280;59072;42.144;25.200;2022-12-29T13:56:56;101076.91;;;19.50;35.98
71149;BME280;59072;42.144;25.200;2022-12-29T14:05:03;101064.94;;;14.98;45.97
71149;BME280;59072;42.144;25.200;2022-12-29T14:07:36;101060.09;;;14.38;48.64
71149;BME280;59072;42.144;25.200;2022-12-29T14:10:02;101063.19;;;14.17;49.85
71149;BME280;59072;42.144;25.200;2022-12-29T14:12:36;101061.38;;;13.79;49.67
71149;BME280;59072;42.144;25.200;2022-12-29T14:15:19;101064.88;;;13.27;52.06
71149;BME280;59072;42.144;25.200;2022-12-29T14:18:13;101050.97;;;12.99;52.90
71149;BME280;59072;42.144;25.200;2022-12-29T14:23:39;101058.84;;;12.80;54.37
71149;BME280;59072;42.144;25.200;2022-12-29T14:29:41;101052.63;;;13.00;53.86
71149;BME280;59072;42.144;25.200;2022-12-29T14:36:43;101064.25;;;12.67;55.05
71149;BME280;59072;42.144;25.200;2022-12-29T14:39:41;101047.78;;;12.50;56.18
71149;BME280;59072;42.144;25.200;2022-12-29T14:45:06;101054.81;;;12.24;56.68
71149;BME280;59072;42.144;25.200;2022-12-29T14:47:38;101059.94;;;12.13;57.68
71149;BME280;59072;42.144;25.200;2022-12-29T14:52:31;101055.22;;;12.08;58.55
71149;BME280;59072;42.144;25.200;2022-12-29T14:58:05;101046.88;;;11.63;59.76
71149;BME280;59072;42.144;25.200;2022-12-29T15:00:33;101041.66;;;11.41;61.24
71149;BME280;59072;42.144;25.200;2022-12-29T15:03:06;101045.16;;;11.42;61.30
71149;BME280;59072;42.144;25.200;2022-12-29T15:08:18;101060.38;;;11.48;61.08
71149;BME280;59072;42.144;25.200;2022-12-29T15:10:51;101042.09;;;11.45;61.05
71149;BME280;59072;42.144;25.200;2022-12-29T15:13:23;101043.09;;;11.44;61.28
71149;BME280;59072;42.144;25.200;2022-12-29T15:15:50;101049.66;;;11.41;61.08
71149;BME280;59072;42.144;25.200;2022-12-29T15:18:29;101035.72;;;10.98;62.06
71149;BME280;59072;42.144;25.200;2022-12-29T15:21:01;101054.38;;;10.91;62.01
71149;BME280;59072;42.144;25.200;2022-12-29T15:23:28;101045.84;;;10.46;63.22
71149;BME280;59072;42.144;25.200;2022-12-29T15:26:02;101044.75;;;10.34;64.03